sensor_id;sensor_type;location;lat;lon;timestamp;P1;durP1;ratioP1;P2;durP2;ratioP2
36185;SDS011;22228;53.222;7.446;2022-12-18T00:00:03;118.03;;;53.67;;
36185;SDS011;22228;53.222;7.446;2022-12-18T00:02:33;113.80;;;52.83;;
36185;SDS011;22228;53.222;7.446;2022-12-18T00:07:43;116.07;;;54.70;;
36185;SDS011;22228;53.222;7.446;2022-12-18T00:10:09;122.97;;;56.23;;
36185;SDS011;22228;53.222;7.446;2022-12-18T00:12:33;132.23;;;55.80;;
36185;SDS011;22228;53.222;7.446;2022-12-18T00:15:03;124.20;;;51.97;;
36185;SDS011;22228;53.222;7.446;2022-12-18T00:17:25;113.17;;;52.43;;
36185;SDS011;22228;53.222;7.446;2022-12-18T00:19:49;117.80;;;51.17;;
36185;SDS011;22228;53.222;7.446;2022-12-18T00:22:17;116.53;;;50.37;;
36185;SDS011;22228;53.222;7.446;2022-12-18T00:24:38;119.80;;;51.77;;
36185;SDS011;22228;53.222;7.446;2022-12-18T00:27:00;111.40;;;50.23;;
36185;SDS011;22228;53.222;7.446;2022-12-18T00:29:21;119.53;;;53.43;;
36185;SDS011;22228;53.222;7.446;2022-12-18T00:31:45;118.17;;;55.03;;
36185;SDS011;22228;53.222;7.446;2022-12-18T00:34:13;116.43;;;52.33;;
36185;SDS011;22228;53.222;7.446;2022-12-18T00:36:34;125.43;;;52.53;;
36185;SDS011;22228;53.222;7.446;2022-12-18T00:38:56;110.57;;;49.73;;
36185;SDS011;22228;53.222;7.446;2022-12-18T00:41:20;107.47;;;46.63;;
36185;SDS011;22228;53.222;7.446;2022-12-18T00:43:57;117.97;;;48.47;;
36185;SDS011;22228;53.222;7.446;2022-12-18T00:46:25;116.67;;;47.10;;
36185;SDS011;22228;53.222;7.446;2022-12-18T00:48:47;106.10;;;47.73;;
36185;SDS011;22228;53.222;7.446;2022-12-18T00:51:08;104.13;;;47.63;;
36185;SDS011;22228;53.222;7.446;2022-12-18T00:53:35;101.83;;;46.53;;
36185;SDS011;22228;53.222;7.446;2022-12-18T00:55:55;110.00;;;48.00;;
36185;SDS011;22228;53.222;7.446;2022-12-18T00:58:17;109.80;;;48.33;;
36185;SDS011;22228;53.222;7.446;2022-12-18T01:03:32;103.17;;;45.80;;
36185;SDS011;22228;53.222;7.446;2022-12-18T01:05:53;101.70;;;45.63;;
36185;SDS011;22228;53.222;7.446;2022-12-18T01:08:22;106.50;;;47.87;;
36185;SDS011;22228;53.222;7.446;2022-12-18T01:10:43;104.23;;;46.03;;
36185;SDS011;22228;53.222;7.446;2022-12-18T01:13:10;113.53;;;48.57;;
36185;SDS011;22228;53.222;7.446;2022-12-18T04:00:49;91.90;;;40.37;;
36185;SDS011;22228;53.222;7.446;2022-12-18T04:03:15;93.03;;;41.03;;
36185;SDS011;22228;53.222;7.446;2022-12-18T04:09:00;100.17;;;44.83;;
36185;SDS011;22228;53.222;7.446;2022-12-18T04:11:23;96.10;;;43.47;;
36185;SDS011;22228;53.222;7.446;2022-12-18T04:14:09;96.03;;;42.50;;
36185;SDS011;22228;53.222;7.446;2022-12-18T04:16:38;91.53;;;42.50;;
36185;SDS011;22228;53.222;7.446;2022-12-18T04:19:07;98.80;;;42.07;;
36185;SDS011;22228;53.222;7.446;2022-12-18T04:21:32;92.07;;;43.13;;
36185;SDS011;22228;53.222;7.446;2022-12-18T04:23:54;90.03;;;41.23;;
36185;SDS011;22228;53.222;7.446;2022-12-18T04:26:24;89.20;;;40.23;;
36185;SDS011;22228;53.222;7.446;2022-12-18T04:32:32;92.20;;;41.03;;
36185;SDS011;22228;53.222;7.446;2022-12-18T04:37:43;84.10;;;40.83;;
36185;SDS011;22228;53.222;7.446;2022-12-18T04:40:08;93.97;;;39.33;;
36185;SDS011;22228;53.222;7.446;2022-12-18T04:49:29;90.73;;;40.77;;
36185;SDS011;22228;53.222;7.446;2022-12-18T04:51:51;82.07;;;39.20;;
36185;SDS011;22228;53.222;7.446;2022-12-18T04:54:13;83.87;;;37.50;;
36185;SDS011;22228;53.222;7.446;2022-12-18T04:56:34;78.40;;;36.50;;
36185;SDS011;22228;53.222;7.446;2022-12-18T04:58:55;78.10;;;35.07;;
36185;SDS011;22228;53.222;7.446;2022-12-18T05:01:40;73.13;;;35.40;;
36185;SDS011;22228;53.222;7.446;2022-12-18T05:07:24;83.77;;;34.90;;
36185;SDS011;22228;53.222;7.446;2022-12-18T05:09:57;76.47;;;37.10;;
36185;SDS011;22228;53.222;7.446;2022-12-18T05:12:19;76.67;;;36.83;;
36185;SDS011;22228;53.222;7.446;2022-12-18T05:14:41;75.60;;;36.87;;
36185;SDS011;22228;53.222;7.446;2022-12-18T05:17:09;74.53;;;35.87;;
36185;SDS011;22228;53.222;7.446;2022-12-18T05:19:30;75.63;;;34.57;;
36185;SDS011;22228;53.222;7.446;2022-12-18T05:21:58;77.30;;;33.93;;
36185;SDS011;22228;53.222;7.446;2022-12-18T05:24:24;72.60;;;34.63;;
36185;SDS011;22228;53.222;7.446;2022-12-18T05:26:49;69.60;;;33.93;;
36185;SDS011;22228;53.222;7.446;2022-12-18T05:29:37;75.60;;;35.37;;
36185;SDS011;22228;53.222;7.446;2022-12-18T05:33:02;76.60;;;35.50;;
36185;SDS011;22228;53.222;7.446;2022-12-18T05:46:26;65.33;;;32.93;;
36185;SDS011;22228;53.222;7.446;2022-12-18T05:48:53;68.83;;;32.20;;
36185;SDS011;22228;53.222;7.446;2022-12-18T05:51:16;67.07;;;31.53;;
36185;SDS011;22228;53.222;7.446;2022-12-18T05:53:45;64.63;;;30.23;;
36185;SDS011;22228;53.222;7.446;2022-12-18T05:56:08;67.60;;;31.43;;
36185;SDS011;22228;53.222;7.446;2022-12-18T05:59:35;64.07;;;32.37;;
36185;SDS011;22228;53.222;7.446;2022-12-18T06:02:53;64.17;;;31.77;;
36185;SDS011;22228;53.222;7.446;2022-12-18T06:05:14;59.37;;;28.53;;
36185;SDS011;22228;53.222;7.446;2022-12-18T06:07:36;56.43;;;30.27;;
36185;SDS011;22228;53.222;7.446;2022-12-18T06:09:59;58.70;;;30.77;;
36185;SDS011;22228;53.222;7.446;2022-12-18T06:16:11;59.53;;;31.37;;
36185;SDS011;22228;53.222;7.446;2022-12-18T06:18:34;60.13;;;31.40;;
36185;SDS011;22228;53.222;7.446;2022-12-18T06:20:55;58.43;;;30.03;;
36185;SDS011;22228;53.222;7.446;2022-12-18T06:26:12;56.53;;;29.90;;
36185;SDS011;22228;53.222;7.446;2022-12-18T06:30:41;59.63;;;30.50;;
36185;SDS011;22228;53.222;7.446;2022-12-18T06:32:07;51.03;;;29.13;;
36185;SDS011;22228;53.222;7.446;2022-12-18T06:34:36;51.80;;;28.70;;
36185;SDS011;22228;53.222;7.446;2022-12-18T06:37:04;48.60;;;27.60;;
36185;SDS011;22228;53.222;7.446;2022-12-18T06:39:27;53.37;;;27.87;;
36185;SDS011;22228;53.222;7.446;2022-12-18T06:45:17;48.63;;;27.57;;
36185;SDS011;22228;53.222;7.446;2022-12-18T06:47:38;47.30;;;27.30;;
36185;SDS011;22228;53.222;7.446;2022-12-18T06:50:03;52.80;;;28.00;;
36185;SDS011;22228;53.222;7.446;2022-12-18T06:52:28;48.97;;;26.83;;
36185;SDS011;22228;53.222;7.446;2022-12-18T06:54:59;44.60;;;26.97;;
36185;SDS011;22228;53.222;7.446;2022-12-18T06:57:23;44.47;;;26.47;;
36185;SDS011;22228;53.222;7.446;2022-12-18T06:59:45;45.73;;;27.67;;
36185;SDS011;22228;53.222;7.446;2022-12-18T07:02:10;47.00;;;27.53;;
36185;SDS011;22228;53.222;7.446;2022-12-18T07:07:47;46.67;;;28.20;;
36185;SDS011;22228;53.222;7.446;2022-12-18T07:10:09;43.43;;;27.93;;
36185;SDS011;22228;53.222;7.446;2022-12-18T07:12:31;54.40;;;28.67;;
36185;SDS011;22228;53.222;7.446;2022-12-18T07:14:54;46.13;;;27.63;;
36185;SDS011;22228;53.222;7.446;2022-12-18T07:17:26;46.47;;;27.07;;
36185;SDS011;22228;53.222;7.446;2022-12-18T07:20:17;48.90;;;28.63;;
36185;SDS011;22228;53.222;7.446;2022-12-18T07:22:38;45.20;;;27.73;;
36185;SDS011;22228;53.222;7.446;2022-12-18T07:28:20;52.10;;;27.23;;
36185;SDS011;22228;53.222;7.446;2022-12-18T07:34:33;43.23;;;25.27;;
36185;SDS011;22228;53.222;7.446;2022-12-18T07:43:24;39.63;;;23.97;;
36185;SDS011;22228;53.222;7.446;2022-12-18T07:46:10;40.87;;;25.93;;
36185;SDS011;22228;53.222;7.446;2022-12-18T07:48:34;39.00;;;23.07;;
36185;SDS011;22228;53.222;7.446;2022-12-18T07:51:02;34.20;;;22.60;;
36185;SDS011;22228;53.222;7.446;2022-12-18T07:56:27;37.20;;;22.07;;
36185;SDS011;22228;53.222;7.446;2022-12-18T07:58:49;36.47;;;22.57;;
36185;SDS011;22228;53.222;7.446;2022-12-18T08:01:12;35.07;;;21.10;;
36185;SDS011;22228;53.222;7.446;2022-12-18T08:03:59;35.33;;;21.43;;
36185;SDS011;22228;53.222;7.446;2022-12-18T08:06:20;34.90;;;21.30;;
36185;SDS011;22228;53.222;7.446;2022-12-18T08:08:41;35.10;;;19.53;;
36185;SDS011;22228;53.222;7.446;2022-12-18T08:11:04;33.83;;;20.37;;
36185;SDS011;22228;53.222;7.446;2022-12-18T08:13:25;29.40;;;18.93;;
36185;SDS011;22228;53.222;7.446;2022-12-18T08:22:21;30.03;;;18.77;;
36185;SDS011;22228;53.222;7.446;2022-12-18T08:24:50;29.60;;;19.20;;
36185;SDS011;22228;53.222;7.446;2022-12-18T08:27:12;30.80;;;18.47;;
36185;SDS011;22228;53.222;7.446;2022-12-18T08:29:33;28.43;;;16.83;;
36185;SDS011;22228;53.222;7.446;2022-12-18T08:31:54;26.63;;;17.73;;
36185;SDS011;22228;53.222;7.446;2022-12-18T08:34:16;27.33;;;18.07;;
36185;SDS011;22228;53.222;7.446;2022-12-18T08:36:44;26.43;;;17.50;;
36185;SDS011;22228;53.222;7.446;2022-12-18T08:39:15;28.90;;;18.57;;
36185;SDS011;22228;53.222;7.446;2022-12-18T08:41:54;30.70;;;17.97;;
36185;SDS011;22228;53.222;7.446;2022-12-18T08:45:01;27.90;;;17.97;;
36185;SDS011;22228;53.222;7.446;2022-12-18T08:47:26;32.87;;;18.70;;
36185;SDS011;22228;53.222;7.446;2022-12-18T08:49:47;34.80;;;19.70;;
36185;SDS011;22228;53.222;7.446;2022-12-18T08:52:34;28.10;;;16.33;;
36185;SDS011;22228;53.222;7.446;2022-12-18T08:59:03;26.27;;;16.03;;
36185;SDS011;22228;53.222;7.446;2022-12-18T09:01:25;26.00;;;16.90;;
36185;SDS011;22228;53.222;7.446;2022-12-18T09:07:25;24.37;;;15.20;;
36185;SDS011;22228;53.222;7.446;2022-12-18T09:09:53;24.63;;;15.67;;
36185;SDS011;22228;53.222;7.446;2022-12-18T09:13:02;23.97;;;15.33;;
36185;SDS011;22228;53.222;7.446;2022-12-18T09:15:31;22.00;;;15.73;;
36185;SDS011;22228;53.222;7.446;2022-12-18T09:17:58;21.60;;;13.47;;
36185;SDS011;22228;53.222;7.446;2022-12-18T09:20:21;19.37;;;14.33;;
36185;SDS011;22228;53.222;7.446;2022-12-18T09:29:23;19.00;;;14.27;;
36185;SDS011;22228;53.222;7.446;2022-12-18T09:31:48;20.80;;;14.20;;
36185;SDS011;22228;53.222;7.446;2022-12-18T09:34:14;20.83;;;16.13;;
36185;SDS011;22228;53.222;7.446;2022-12-18T09:36:36;19.93;;;14.17;;
36185;SDS011;22228;53.222;7.446;2022-12-18T09:39:23;23.27;;;14.87;;
36185;SDS011;22228;53.222;7.446;2022-12-18T09:41:51;23.43;;;14.40;;
36185;SDS011;22228;53.222;7.446;2022-12-18T09:48:27;20.33;;;14.33;;
36185;SDS011;22228;53.222;7.446;2022-12-18T09:51:09;19.03;;;13.10;;
36185;SDS011;22228;53.222;7.446;2022-12-18T09:53:37;18.50;;;12.77;;
36185;SDS011;22228;53.222;7.446;2022-12-18T09:56:01;22.40;;;15.67;;
36185;SDS011;22228;53.222;7.446;2022-12-18T09:58:35;23.43;;;15.90;;
36185;SDS011;22228;53.222;7.446;2022-12-18T10:01:01;19.17;;;13.87;;
36185;SDS011;22228;53.222;7.446;2022-12-18T10:03:54;18.47;;;13.60;;
36185;SDS011;22228;53.222;7.446;2022-12-18T10:09:20;22.87;;;14.47;;
36185;SDS011;22228;53.222;7.446;2022-12-18T10:11:51;19.47;;;13.37;;
36185;SDS011;22228;53.222;7.446;2022-12-18T10:14:26;18.27;;;12.47;;
36185;SDS011;22228;53.222;7.446;2022-12-18T10:16:55;22.23;;;13.73;;
36185;SDS011;22228;53.222;7.446;2022-12-18T10:19:35;20.73;;;12.17;;
36185;SDS011;22228;53.222;7.446;2022-12-18T10:22:04;16.87;;;12.23;;
36185;SDS011;22228;53.222;7.446;2022-12-18T10:24:35;17.00;;;11.97;;
36185;SDS011;22228;53.222;7.446;2022-12-18T10:27:08;16.93;;;12.87;;
36185;SDS011;22228;53.222;7.446;2022-12-18T10:29:35;20.20;;;12.40;;
36185;SDS011;22228;53.222;7.446;2022-12-18T10:31:57;19.33;;;13.43;;
36185;SDS011;22228;53.222;7.446;2022-12-18T10:34:47;18.03;;;13.20;;
36185;SDS011;22228;53.222;7.446;2022-12-18T10:37:10;15.77;;;11.83;;
36185;SDS011;22228;53.222;7.446;2022-12-18T10:39:38;18.47;;;12.87;;
36185;SDS011;22228;53.222;7.446;2022-12-18T10:42:09;16.70;;;12.67;;
36185;SDS011;22228;53.222;7.446;2022-12-18T10:44:32;17.33;;;12.57;;
36185;SDS011;22228;53.222;7.446;2022-12-18T10:46:54;17.60;;;12.17;;
36185;SDS011;22228;53.222;7.446;2022-12-18T10:49:23;16.90;;;12.37;;
36185;SDS011;22228;53.222;7.446;2022-12-18T10:51:48;15.97;;;11.97;;
36185;SDS011;22228;53.222;7.446;2022-12-18T10:54:13;16.73;;;11.23;;
36185;SDS011;22228;53.222;7.446;2022-12-18T10:56:35;16.97;;;11.90;;
36185;SDS011;22228;53.222;7.446;2022-12-18T10:59:23;14.83;;;11.60;;
36185;SDS011;22228;53.222;7.446;2022-12-18T11:01:45;15.70;;;11.63;;
36185;SDS011;22228;53.222;7.446;2022-12-18T11:04:08;14.80;;;10.93;;
36185;SDS011;22228;53.222;7.446;2022-12-18T11:06:57;16.10;;;11.63;;
36185;SDS011;22228;53.222;7.446;2022-12-18T11:09:20;30.83;;;22.10;;
36185;SDS011;22228;53.222;7.446;2022-12-18T11:11:47;13.40;;;10.33;;
36185;SDS011;22228;53.222;7.446;2022-12-18T11:14:12;14.97;;;11.40;;
36185;SDS011;22228;53.222;7.446;2022-12-18T11:17:17;17.07;;;13.27;;
36185;SDS011;22228;53.222;7.446;2022-12-18T11:19:39;16.90;;;12.63;;
36185;SDS011;22228;53.222;7.446;2022-12-18T11:22:03;18.30;;;12.43;;
36185;SDS011;22228;53.222;7.446;2022-12-18T11:24:39;18.80;;;11.63;;
36185;SDS011;22228;53.222;7.446;2022-12-18T11:27:00;16.57;;;11.50;;
36185;SDS011;22228;53.222;7.446;2022-12-18T11:29:31;15.67;;;11.17;;
36185;SDS011;22228;53.222;7.446;2022-12-18T11:32:01;15.57;;;11.53;;
36185;SDS011;22228;53.222;7.446;2022-12-18T11:35:20;15.17;;;12.20;;
36185;SDS011;22228;53.222;7.446;2022-12-18T11:37:48;15.67;;;12.57;;
36185;SDS011;22228;53.222;7.446;2022-12-18T11:40:18;22.03;;;14.10;;
36185;SDS011;22228;53.222;7.446;2022-12-18T11:42:45;16.77;;;12.73;;
36185;SDS011;22228;53.222;7.446;2022-12-18T11:45:37;20.03;;;14.23;;
36185;SDS011;22228;53.222;7.446;2022-12-18T11:48:02;15.37;;;12.97;;
36185;SDS011;22228;53.222;7.446;2022-12-18T11:53:22;16.83;;;12.33;;
36185;SDS011;22228;53.222;7.446;2022-12-18T11:55:49;22.37;;;14.43;;
36185;SDS011;22228;53.222;7.446;2022-12-18T11:58:20;15.37;;;12.77;;
36185;SDS011;22228;53.222;7.446;2022-12-18T12:00:51;19.13;;;14.73;;
36185;SDS011;22228;53.222;7.446;2022-12-18T12:03:24;18.47;;;14.90;;
36185;SDS011;22228;53.222;7.446;2022-12-18T12:06:04;21.57;;;14.10;;
36185;SDS011;22228;53.222;7.446;2022-12-18T12:08:34;18.93;;;14.97;;
36185;SDS011;22228;53.222;7.446;2022-12-18T12:11:05;21.03;;;14.13;;
36185;SDS011;22228;53.222;7.446;2022-12-18T12:13:36;16.60;;;13.20;;
36185;SDS011;22228;53.222;7.446;2022-12-18T12:16:15;15.53;;;12.67;;
36185;SDS011;22228;53.222;7.446;2022-12-18T12:19:37;19.47;;;14.33;;
36185;SDS011;22228;53.222;7.446;2022-12-18T12:22:33;18.67;;;13.50;;
36185;SDS011;22228;53.222;7.446;2022-12-18T12:25:07;21.80;;;15.63;;
36185;SDS011;22228;53.222;7.446;2022-12-18T12:27:54;21.57;;;15.57;;
36185;SDS011;22228;53.222;7.446;2022-12-18T12:30:58;17.73;;;14.73;;
36185;SDS011;22228;53.222;7.446;2022-12-18T12:36:22;25.13;;;17.10;;
36185;SDS011;22228;53.222;7.446;2022-12-18T12:38:49;23.53;;;16.83;;
36185;SDS011;22228;53.222;7.446;2022-12-18T12:41:18;18.13;;;14.60;;
36185;SDS011;22228;53.222;7.446;2022-12-18T12:44:15;18.20;;;13.80;;
36185;SDS011;22228;53.222;7.446;2022-12-18T12:46:39;18.03;;;13.43;;
36185;SDS011;22228;53.222;7.446;2022-12-18T12:49:03;16.13;;;12.97;;
36185;SDS011;22228;53.222;7.446;2022-12-18T12:51:32;17.07;;;12.73;;
36185;SDS011;22228;53.222;7.446;2022-12-18T12:54:02;15.67;;;12.87;;
36185;SDS011;22228;53.222;7.446;2022-12-18T12:56:37;18.20;;;13.17;;
36185;SDS011;22228;53.222;7.446;2022-12-18T12:59:09;19.10;;;13.83;;
36185;SDS011;22228;53.222;7.446;2022-12-18T13:01:36;18.40;;;13.70;;
36185;SDS011;22228;53.222;7.446;2022-12-18T13:04:26;18.13;;;13.00;;
36185;SDS011;22228;53.222;7.446;2022-12-18T13:12:52;34.47;;;21.50;;
36185;SDS011;22228;53.222;7.446;2022-12-18T13:15:22;18.80;;;13.33;;
36185;SDS011;22228;53.222;7.446;2022-12-18T13:17:45;17.37;;;12.80;;
36185;SDS011;22228;53.222;7.446;2022-12-18T13:23:18;17.50;;;12.43;;
36185;SDS011;22228;53.222;7.446;2022-12-18T13:25:51;16.47;;;13.20;;
36185;SDS011;22228;53.222;7.446;2022-12-18T13:28:51;16.63;;;12.57;;
36185;SDS011;22228;53.222;7.446;2022-12-18T13:31:13;20.80;;;12.77;;
36185;SDS011;22228;53.222;7.446;2022-12-18T13:33:39;14.70;;;11.97;;
36185;SDS011;22228;53.222;7.446;2022-12-18T13:36:04;16.73;;;12.40;;
36185;SDS011;22228;53.222;7.446;2022-12-18T13:38:39;16.17;;;12.23;;
36185;SDS011;22228;53.222;7.446;2022-12-18T13:41:01;16.37;;;12.57;;
36185;SDS011;22228;53.222;7.446;2022-12-18T13:43:28;17.20;;;12.43;;
36185;SDS011;22228;53.222;7.446;2022-12-18T13:46:01;18.77;;;12.47;;
36185;SDS011;22228;53.222;7.446;2022-12-18T13:48:25;17.40;;;11.97;;
36185;SDS011;22228;53.222;7.446;2022-12-18T13:50:56;13.10;;;11.00;;
36185;SDS011;22228;53.222;7.446;2022-12-18T13:53:20;27.73;;;17.13;;
36185;SDS011;22228;53.222;7.446;2022-12-18T13:55:50;19.57;;;14.80;;
36185;SDS011;22228;53.222;7.446;2022-12-18T13:58:11;17.57;;;12.63;;
36185;SDS011;22228;53.222;7.446;2022-12-18T14:00:40;14.07;;;11.67;;
36185;SDS011;22228;53.222;7.446;2022-12-18T14:03:16;14.60;;;11.50;;
36185;SDS011;22228;53.222;7.446;2022-12-18T14:06:05;16.23;;;12.40;;
36185;SDS011;22228;53.222;7.446;2022-12-18T14:08:37;14.90;;;11.47;;
36185;SDS011;22228;53.222;7.446;2022-12-18T14:10:59;14.60;;;11.43;;
36185;SDS011;22228;53.222;7.446;2022-12-18T14:13:23;40.93;;;27.80;;
36185;SDS011;22228;53.222;7.446;2022-12-18T14:19:08;15.27;;;12.23;;
36185;SDS011;22228;53.222;7.446;2022-12-18T14:21:33;46.77;;;26.20;;
36185;SDS011;22228;53.222;7.446;2022-12-18T14:24:12;17.00;;;13.10;;
36185;SDS011;22228;53.222;7.446;2022-12-18T14:29:34;15.70;;;11.40;;
36185;SDS011;22228;53.222;7.446;2022-12-18T14:34:44;13.67;;;11.50;;
36185;SDS011;22228;53.222;7.446;2022-12-18T14:37:09;16.17;;;12.03;;
36185;SDS011;22228;53.222;7.446;2022-12-18T14:39:34;17.53;;;11.27;;
36185;SDS011;22228;53.222;7.446;2022-12-18T14:44:42;15.23;;;10.77;;
36185;SDS011;22228;53.222;7.446;2022-12-18T14:47:04;14.03;;;10.93;;
36185;SDS011;22228;53.222;7.446;2022-12-18T14:49:26;13.17;;;10.87;;
36185;SDS011;22228;53.222;7.446;2022-12-18T14:52:19;13.63;;;10.10;;
36185;SDS011;22228;53.222;7.446;2022-12-18T14:55:13;13.67;;;10.90;;
36185;SDS011;22228;53.222;7.446;2022-12-18T14:57:36;11.40;;;10.20;;
36185;SDS011;22228;53.222;7.446;2022-12-18T15:00:03;12.57;;;9.67;;
36185;SDS011;22228;53.222;7.446;2022-12-18T15:02:25;13.13;;;11.13;;
36185;SDS011;22228;53.222;7.446;2022-12-18T15:05:16;13.70;;;11.17;;
36185;SDS011;22228;53.222;7.446;2022-12-18T15:07:43;12.40;;;10.40;;
36185;SDS011;22228;53.222;7.446;2022-12-18T15:10:10;14.07;;;12.50;;
36185;SDS011;22228;53.222;7.446;2022-12-18T15:12:33;14.30;;;11.57;;
36185;SDS011;22228;53.222;7.446;2022-12-18T15:14:56;13.87;;;11.57;;
36185;SDS011;22228;53.222;7.446;2022-12-18T15:17:18;11.50;;;10.07;;
36185;SDS011;22228;53.222;7.446;2022-12-18T15:19:46;12.70;;;10.10;;
36185;SDS011;22228;53.222;7.446;2022-12-18T15:22:15;15.13;;;10.10;;
36185;SDS011;22228;53.222;7.446;2022-12-18T15:24:42;13.03;;;10.77;;
36185;SDS011;22228;53.222;7.446;2022-12-18T15:27:03;14.50;;;10.70;;
36185;SDS011;22228;53.222;7.446;2022-12-18T15:32:41;16.20;;;10.80;;
36185;SDS011;22228;53.222;7.446;2022-12-18T15:35:03;14.57;;;9.17;;
36185;SDS011;22228;53.222;7.446;2022-12-18T15:37:35;11.73;;;9.10;;
36185;SDS011;22228;53.222;7.446;2022-12-18T15:40:23;11.10;;;8.27;;
36185;SDS011;22228;53.222;7.446;2022-12-18T15:43:08;10.73;;;8.53;;
36185;SDS011;22228;53.222;7.446;2022-12-18T15:45:49;11.73;;;8.80;;
36185;SDS011;22228;53.222;7.446;2022-12-18T15:48:20;19.10;;;12.17;;
36185;SDS011;22228;53.222;7.446;2022-12-18T15:50:43;19.87;;;13.37;;
36185;SDS011;22228;53.222;7.446;2022-12-18T15:55:54;10.83;;;8.70;;
36185;SDS011;22228;53.222;7.446;2022-12-18T15:58:35;9.10;;;7.87;;
36185;SDS011;22228;53.222;7.446;2022-12-18T16:03:45;12.40;;;8.53;;
36185;SDS011;22228;53.222;7.446;2022-12-18T16:06:05;11.60;;;7.87;;
36185;SDS011;22228;53.222;7.446;2022-12-18T16:08:27;11.23;;;8.60;;
36185;SDS011;22228;53.222;7.446;2022-12-18T16:10:48;9.43;;;7.87;;
36185;SDS011;22228;53.222;7.446;2022-12-18T16:13:38;12.60;;;8.53;;
36185;SDS011;22228;53.222;7.446;2022-12-18T16:16:00;11.37;;;8.10;;
36185;SDS011;22228;53.222;7.446;2022-12-18T16:18:23;12.37;;;8.77;;
36185;SDS011;22228;53.222;7.446;2022-12-18T16:20:47;9.73;;;7.13;;
36185;SDS011;22228;53.222;7.446;2022-12-18T16:23:08;9.03;;;7.90;;
36185;SDS011;22228;53.222;7.446;2022-12-18T16:25:56;11.67;;;8.10;;
36185;SDS011;22228;53.222;7.446;2022-12-18T16:31:09;11.40;;;8.00;;
36185;SDS011;22228;53.222;7.446;2022-12-18T16:33:32;8.73;;;7.83;;
36185;SDS011;22228;53.222;7.446;2022-12-18T16:35:53;9.47;;;7.93;;
36185;SDS011;22228;53.222;7.446;2022-12-18T16:38:45;11.17;;;8.07;;
36185;SDS011;22228;53.222;7.446;2022-12-18T16:41:07;12.47;;;8.43;;
36185;SDS011;22228;53.222;7.446;2022-12-18T16:46:43;8.93;;;7.57;;
36185;SDS011;22228;53.222;7.446;2022-12-18T16:49:28;11.50;;;8.80;;
36185;SDS011;22228;53.222;7.446;2022-12-18T16:51:50;10.07;;;7.47;;
36185;SDS011;22228;53.222;7.446;2022-12-18T16:54:11;9.93;;;7.23;;
36185;SDS011;22228;53.222;7.446;2022-12-18T16:56:32;9.10;;;7.60;;
36185;SDS011;22228;53.222;7.446;2022-12-18T16:59:00;9.67;;;7.13;;
36185;SDS011;22228;53.222;7.446;2022-12-18T17:01:25;9.33;;;7.67;;
36185;SDS011;22228;53.222;7.446;2022-12-18T17:03:51;9.40;;;7.30;;
36185;SDS011;22228;53.222;7.446;2022-12-18T17:06:43;13.60;;;9.43;;
36185;SDS011;22228;53.222;7.446;2022-12-18T17:09:13;14.00;;;10.20;;
36185;SDS011;22228;53.222;7.446;2022-12-18T17:14:26;10.80;;;8.30;;
36185;SDS011;22228;53.222;7.446;2022-12-18T17:16:50;8.47;;;7.47;;
36185;SDS011;22228;53.222;7.446;2022-12-18T17:19:12;10.93;;;8.17;;
36185;SDS011;22228;53.222;7.446;2022-12-18T17:21:34;8.87;;;7.33;;
36185;SDS011;22228;53.222;7.446;2022-12-18T17:24:19;8.13;;;6.93;;
36185;SDS011;22228;53.222;7.446;2022-12-18T17:26:50;8.90;;;7.07;;
36185;SDS011;22228;53.222;7.446;2022-12-18T17:29:11;9.73;;;6.70;;
36185;SDS011;22228;53.222;7.446;2022-12-18T17:31:34;8.93;;;7.10;;
36185;SDS011;22228;53.222;7.446;2022-12-18T17:34:02;8.97;;;7.03;;
36185;SDS011;22228;53.222;7.446;2022-12-18T17:36:24;7.47;;;6.77;;
36185;SDS011;22228;53.222;7.446;2022-12-18T17:38:49;9.67;;;7.60;;
36185;SDS011;22228;53.222;7.446;2022-12-18T17:41:13;9.83;;;7.20;;
36185;SDS011;22228;53.222;7.446;2022-12-18T17:43:39;9.43;;;7.47;;
36185;SDS011;22228;53.222;7.446;2022-12-18T17:46:04;8.43;;;6.80;;
36185;SDS011;22228;53.222;7.446;2022-12-18T17:48:25;8.83;;;7.93;;
36185;SDS011;22228;53.222;7.446;2022-12-18T17:50:48;22.50;;;16.63;;
36185;SDS011;22228;53.222;7.446;2022-12-18T17:53:10;9.17;;;6.63;;
36185;SDS011;22228;53.222;7.446;2022-12-18T17:56:21;8.07;;;6.43;;
36185;SDS011;22228;53.222;7.446;2022-12-18T17:58:46;6.87;;;6.17;;
36185;SDS011;22228;53.222;7.446;2022-12-18T18:01:11;7.80;;;5.80;;
36185;SDS011;22228;53.222;7.446;2022-12-18T18:03:34;8.90;;;6.43;;
36185;SDS011;22228;53.222;7.446;2022-12-18T18:05:58;10.57;;;7.83;;
36185;SDS011;22228;53.222;7.446;2022-12-18T18:08:20;9.83;;;6.77;;
36185;SDS011;22228;53.222;7.446;2022-12-18T18:11:07;8.43;;;7.43;;
36185;SDS011;22228;53.222;7.446;2022-12-18T18:14:00;8.47;;;6.40;;
36185;SDS011;22228;53.222;7.446;2022-12-18T18:16:23;6.87;;;5.70;;
36185;SDS011;22228;53.222;7.446;2022-12-18T18:18:46;7.97;;;5.97;;
36185;SDS011;22228;53.222;7.446;2022-12-18T18:23:59;10.40;;;6.53;;
36185;SDS011;22228;53.222;7.446;2022-12-18T18:26:45;8.30;;;7.30;;
36185;SDS011;22228;53.222;7.446;2022-12-18T18:29:07;6.20;;;5.60;;
36185;SDS011;22228;53.222;7.446;2022-12-18T18:31:30;6.63;;;5.90;;
36185;SDS011;22228;53.222;7.446;2022-12-18T18:33:52;7.17;;;5.70;;
36185;SDS011;22228;53.222;7.446;2022-12-18T18:36:40;6.83;;;6.07;;
36185;SDS011;22228;53.222;7.446;2022-12-18T18:39:02;7.70;;;5.93;;
36185;SDS011;22228;53.222;7.446;2022-12-18T18:41:23;6.50;;;5.90;;
36185;SDS011;22228;53.222;7.446;2022-12-18T18:43:44;6.87;;;5.43;;
36185;SDS011;22228;53.222;7.446;2022-12-18T18:46:31;7.13;;;5.77;;
36185;SDS011;22228;53.222;7.446;2022-12-18T18:48:54;9.20;;;6.47;;
36185;SDS011;22228;53.222;7.446;2022-12-18T18:51:21;7.53;;;5.77;;
36185;SDS011;22228;53.222;7.446;2022-12-18T18:53:46;6.80;;;6.20;;
36185;SDS011;22228;53.222;7.446;2022-12-18T18:56:09;9.77;;;6.67;;
36185;SDS011;22228;53.222;7.446;2022-12-18T18:58:32;6.57;;;5.87;;
36185;SDS011;22228;53.222;7.446;2022-12-18T19:01:18;6.97;;;6.00;;
36185;SDS011;22228;53.222;7.446;2022-12-18T19:03:40;14.33;;;6.33;;
36185;SDS011;22228;53.222;7.446;2022-12-18T19:06:03;7.83;;;6.70;;
36185;SDS011;22228;53.222;7.446;2022-12-18T19:08:34;9.00;;;6.40;;
36185;SDS011;22228;53.222;7.446;2022-12-18T19:11:00;8.33;;;6.10;;
36185;SDS011;22228;53.222;7.446;2022-12-18T19:13:23;8.83;;;7.33;;
36185;SDS011;22228;53.222;7.446;2022-12-18T19:16:09;7.97;;;6.13;;
36185;SDS011;22228;53.222;7.446;2022-12-18T19:18:32;8.67;;;6.10;;
36185;SDS011;22228;53.222;7.446;2022-12-18T19:20:56;16.33;;;9.20;;
36185;SDS011;22228;53.222;7.446;2022-12-18T19:23:23;11.83;;;8.23;;
36185;SDS011;22228;53.222;7.446;2022-12-18T19:25:48;13.13;;;8.67;;
36185;SDS011;22228;53.222;7.446;2022-12-18T19:28:11;43.43;;;22.90;;
36185;SDS011;22228;53.222;7.446;2022-12-18T19:30:31;7.90;;;6.93;;
36185;SDS011;22228;53.222;7.446;2022-12-18T19:32:56;9.77;;;7.63;;
36185;SDS011;22228;53.222;7.446;2022-12-18T19:35:42;8.60;;;7.13;;
36185;SDS011;22228;53.222;7.446;2022-12-18T19:38:28;11.73;;;7.97;;
36185;SDS011;22228;53.222;7.446;2022-12-18T19:40:50;8.50;;;6.73;;
36185;SDS011;22228;53.222;7.446;2022-12-18T19:43:13;8.57;;;6.83;;
36185;SDS011;22228;53.222;7.446;2022-12-18T19:45:34;10.43;;;9.00;;